sensor_id;sensor_type;location;lat;lon;timestamp;temperature;humidity
27797;DHT22;15177;50.844;4.412;2022-08-19T00:01:47;22.80;99.90
27797;DHT22;15177;50.844;4.412;2022-08-19T00:04:15;22.60;99.90
27797;DHT22;15177;50.844;4.412;2022-08-19T00:06:42;22.60;99.90
27797;DHT22;15177;50.844;4.412;2022-08-19T00:09:10;22.50;99.90
27797;DHT22;15177;50.844;4.412;2022-08-19T00:11:36;22.50;99.90
27797;DHT22;15177;50.844;4.412;2022-08-19T00:14:03;22.40;99.90
27797;DHT22;15177;50.844;4.412;2022-08-19T00:16:29;22.30;99.90
27797;DHT22;15177;50.844;4.412;2022-08-19T00:18:55;22.20;99.90
27797;DHT22;15177;50.844;4.412;2022-08-19T00:21:22;22.10;99.90
27797;DHT22;15177;50.844;4.412;2022-08-19T00:23:48;22.10;99.90
27797;DHT22;15177;50.844;4.412;2022-08-19T00:26:14;22.00;99.90
27797;DHT22;15177;50.844;4.412;2022-08-19T00:28:39;21.80;99.90
27797;DHT22;15177;50.844;4.412;2022-08-19T00:31:06;21.70;99.90
27797;DHT22;15177;50.844;4.412;2022-08-19T00:33:33;21.70;99.90
27797;DHT22;15177;50.844;4.412;2022-08-19T00:36:00;21.70;99.90
27797;DHT22;15177;50.844;4.412;2022-08-19T00:38:26;21.60;99.90
27797;DHT22;15177;50.844;4.412;2022-08-19T00:40:52;21.60;99.90
27797;DHT22;15177;50.844;4.412;2022-08-19T00:43:23;21.60;99.90
27797;DHT22;15177;50.844;4.412;2022-08-19T00:45:49;21.60;99.90
27797;DHT22;15177;50.844;4.412;2022-08-19T00:48:16;21.70;99.90
27797;DHT22;15177;50.844;4.412;2022-08-19T00:50:42;21.60;99.90
27797;DHT22;15177;50.844;4.412;2022-08-19T00:53:10;21.50;99.90
27797;DHT22;15177;50.844;4.412;2022-08-19T00:55:37;21.50;99.90
27797;DHT22;15177;50.844;4.412;2022-08-19T00:58:08;21.60;99.90
27797;DHT22;15177;50.844;4.412;2022-08-19T01:00:36;21.60;99.90
27797;DHT22;15177;50.844;4.412;2022-08-19T01:03:08;21.60;99.90
27797;DHT22;15177;50.844;4.412;2022-08-19T01:05:35;21.60;99.90
27797;DHT22;15177;50.844;4.412;2022-08-19T01:08:02;21.70;99.90
27797;DHT22;15177;50.844;4.412;2022-08-19T01:10:31;21.60;99.90
27797;DHT22;15177;50.844;4.412;2022-08-19T01:12:59;21.70;99.90
27797;DHT22;15177;50.844;4.412;2022-08-19T01:15:30;21.70;99.90
27797;DHT22;15177;50.844;4.412;2022-08-19T01:17:57;21.80;99.90
27797;DHT22;15177;50.844;4.412;2022-08-19T01:20:25;21.80;99.90
27797;DHT22;15177;50.844;4.412;2022-08-19T01:22:54;21.70;99.90
27797;DHT22;15177;50.844;4.412;2022-08-19T01:25:24;21.60;99.90
27797;DHT22;15177;50.844;4.412;2022-08-19T01:27:52;21.50;99.90
27797;DHT22;15177;50.844;4.412;2022-08-19T01:30:25;21.40;99.90
27797;DHT22;15177;50.844;4.412;2022-08-19T01:32:52;21.50;99.90
27797;DHT22;15177;50.844;4.412;2022-08-19T01:35:19;21.60;99.90
27797;DHT22;15177;50.844;4.412;2022-08-19T01:37:57;21.40;99.90
27797;DHT22;15177;50.844;4.412;2022-08-19T01:40:27;21.30;99.90
27797;DHT22;15177;50.844;4.412;2022-08-19T01:42:53;21.20;99.90
27797;DHT22;15177;50.844;4.412;2022-08-19T01:45:21;21.10;99.90
27797;DHT22;15177;50.844;4.412;2022-08-19T01:47:48;20.90;99.90
27797;DHT22;15177;50.844;4.412;2022-08-19T01:50:14;20.90;99.90
27797;DHT22;15177;50.844;4.412;2022-08-19T01:52:41;20.90;99.90
27797;DHT22;15177;50.844;4.412;2022-08-19T01:55:10;20.90;99.90
27797;DHT22;15177;50.844;4.412;2022-08-19T01:57:37;21.10;99.90
27797;DHT22;15177;50.844;4.412;2022-08-19T02:00:07;21.10;99.90
27797;DHT22;15177;50.844;4.412;2022-08-19T02:02:34;21.10;99.90
27797;DHT22;15177;50.844;4.412;2022-08-19T02:04:59;21.10;99.90
27797;DHT22;15177;50.844;4.412;2022-08-19T02:07:25;21.10;99.90
27797;DHT22;15177;50.844;4.412;2022-08-19T02:09:51;21.10;99.90
27797;DHT22;15177;50.844;4.412;2022-08-19T02:12:16;21.10;99.90
27797;DHT22;15177;50.844;4.412;2022-08-19T02:14:42;21.10;99.90
27797;DHT22;15177;50.844;4.412;2022-08-19T02:17:08;21.20;99.90
27797;DHT22;15177;50.844;4.412;2022-08-19T02:19:34;21.20;99.90
27797;DHT22;15177;50.844;4.412;2022-08-19T02:22:00;21.20;99.90
27797;DHT22;15177;50.844;4.412;2022-08-19T02:24:26;21.00;99.90
27797;DHT22;15177;50.844;4.412;2022-08-19T02:26:52;20.90;99.90
27797;DHT22;15177;50.844;4.412;2022-08-19T02:29:17;20.80;99.90
27797;DHT22;15177;50.844;4.412;2022-08-19T02:31:43;20.60;99.90
27797;DHT22;15177;50.844;4.412;2022-08-19T02:34:09;20.60;99.90
27797;DHT22;15177;50.844;4.412;2022-08-19T02:36:34;20.60;99.90
27797;DHT22;15177;50.844;4.412;2022-08-19T02:39:00;20.60;99.90
27797;DHT22;15177;50.844;4.412;2022-08-19T02:41:31;20.60;99.90
27797;DHT22;15177;50.844;4.412;2022-08-19T02:44:00;20.70;99.90
27797;DHT22;15177;50.844;4.412;2022-08-19T02:46:31;20.70;99.90
27797;DHT22;15177;50.844;4.412;2022-08-19T02:49:06;20.70;99.90
27797;DHT22;15177;50.844;4.412;2022-08-19T02:51:34;20.70;99.90
27797;DHT22;15177;50.844;4.412;2022-08-19T02:54:01;20.60;99.90
27797;DHT22;15177;50.844;4.412;2022-08-19T02:56:27;20.70;99.90
27797;DHT22;15177;50.844;4.412;2022-08-19T02:58:54;20.60;99.90
27797;DHT22;15177;50.844;4.412;2022-08-19T03:01:29;20.60;99.90
27797;DHT22;15177;50.844;4.412;2022-08-19T03:03:56;20.60;99.90
27797;DHT22;15177;50.844;4.412;2022-08-19T03:06:23;20.60;99.90
27797;DHT22;15177;50.844;4.412;2022-08-19T03:08:49;20.60;99.90
27797;DHT22;15177;50.844;4.412;2022-08-19T03:11:27;20.50;99.90
27797;DHT22;15177;50.844;4.412;2022-08-19T03:13:53;20.50;99.90
27797;DHT22;15177;50.844;4.412;2022-08-19T03:16:21;20.40;99.90
27797;DHT22;15177;50.844;4.412;2022-08-19T03:18:47;20.40;99.90
27797;DHT22;15177;50.844;4.412;2022-08-19T03:21:18;20.30;99.90
27797;DHT22;15177;50.844;4.412;2022-08-19T03:23:44;20.40;99.90
27797;DHT22;15177;50.844;4.412;2022-08-19T03:26:10;20.30;99.90
27797;DHT22;15177;50.844;4.412;2022-08-19T03:28:36;20.30;99.90
27797;DHT22;15177;50.844;4.412;2022-08-19T03:31:09;20.30;99.90
27797;DHT22;15177;50.844;4.412;2022-08-19T03:33:35;20.30;99.90
27797;DHT22;15177;50.844;4.412;2022-08-19T03:36:14;20.20;99.90
27797;DHT22;15177;50.844;4.412;2022-08-19T03:38:43;20.10;99.90
27797;DHT22;15177;50.844;4.412;2022-08-19T03:41:13;20.20;99.90
27797;DHT22;15177;50.844;4.412;2022-08-19T03:43:40;20.20;99.90
27797;DHT22;15177;50.844;4.412;2022-08-19T03:46:12;20.30;99.90
27797;DHT22;15177;50.844;4.412;2022-08-19T03:48:40;20.20;99.90
27797;DHT22;15177;50.844;4.412;2022-08-19T03:51:07;20.20;99.90
27797;DHT22;15177;50.844;4.412;2022-08-19T03:53:34;20.10;99.90
27797;DHT22;15177;50.844;4.412;2022-08-19T03:56:00;20.10;99.90
27797;DHT22;15177;50.844;4.412;2022-08-19T03:58:29;20.00;99.90
27797;DHT22;15177;50.844;4.412;2022-08-19T04:00:56;19.90;99.90
27797;DHT22;15177;50.844;4.412;2022-08-19T04:03:25;19.80;99.90
27797;DHT22;15177;50.844;4.412;2022-08-19T04:05:52;19.70;99.90
27797;DHT22;15177;50.844;4.412;2022-08-19T04:08:19;19.80;99.90
27797;DHT22;15177;50.844;4.412;2022-08-19T04:10:48;19.70;99.90
27797;DHT22;15177;50.844;4.412;2022-08-19T04:13:15;19.70;99.90
27797;DHT22;15177;50.844;4.412;2022-08-19T04:15:42;19.60;99.90
27797;DHT22;15177;50.844;4.412;2022-08-19T04:18:09;19.60;99.90
27797;DHT22;15177;50.844;4.412;2022-08-19T04:20:43;19.60;99.90
27797;DHT22;15177;50.844;4.412;2022-08-19T04:23:10;19.60;99.90
27797;DHT22;15177;50.844;4.412;2022-08-19T04:25:41;19.60;99.90
27797;DHT22;15177;50.844;4.412;2022-08-19T04:28:07;19.50;99.90
27797;DHT22;15177;50.844;4.412;2022-08-19T04:30:43;19.50;99.90
27797;DHT22;15177;50.844;4.412;2022-08-19T04:33:11;19.40;99.90
27797;DHT22;15177;50.844;4.412;2022-08-19T04:35:42;19.40;99.90
27797;DHT22;15177;50.844;4.412;2022-08-19T04:38:09;19.40;99.90
27797;DHT22;15177;50.844;4.412;2022-08-19T04:40:45;19.40;99.90
27797;DHT22;15177;50.844;4.412;2022-08-19T04:43:30;19.40;99.90
27797;DHT22;15177;50.844;4.412;2022-08-19T04:45:57;19.30;99.90
27797;DHT22;15177;50.844;4.412;2022-08-19T04:48:23;19.30;99.90
27797;DHT22;15177;50.844;4.412;2022-08-19T04:50:53;19.40;99.90
27797;DHT22;15177;50.844;4.412;2022-08-19T04:53:32;19.40;99.90
27797;DHT22;15177;50.844;4.412;2022-08-19T04:56:03;19.40;99.90
27797;DHT22;15177;50.844;4.412;2022-08-19T04:58:29;19.40;99.90
27797;DHT22;15177;50.844;4.412;2022-08-19T05:00:55;19.50;99.90
27797;DHT22;15177;50.844;4.412;2022-08-19T05:03:21;19.60;99.90
27797;DHT22;15177;50.844;4.412;2022-08-19T05:05:48;19.50;99.90
27797;DHT22;15177;50.844;4.412;2022-08-19T05:08:15;19.50;99.90
27797;DHT22;15177;50.844;4.412;2022-08-19T05:10:46;19.50;99.90
27797;DHT22;15177;50.844;4.412;2022-08-19T05:13:12;19.50;99.90
27797;DHT22;15177;50.844;4.412;2022-08-19T05:15:38;19.50;99.90
27797;DHT22;15177;50.844;4.412;2022-08-19T05:18:04;19.60;99.90
27797;DHT22;15177;50.844;4.412;2022-08-19T05:20:48;19.70;99.90
27797;DHT22;15177;50.844;4.412;2022-08-19T05:23:33;19.80;99.90
27797;DHT22;15177;50.844;4.412;2022-08-19T05:25:58;19.80;99.90
27797;DHT22;15177;50.844;4.412;2022-08-19T05:28:25;19.80;99.90
27797;DHT22;15177;50.844;4.412;2022-08-19T05:30:51;19.90;99.90
27797;DHT22;15177;50.844;4.412;2022-08-19T05:33:17;19.90;99.90
27797;DHT22;15177;50.844;4.412;2022-08-19T05:35:43;20.00;99.90
27797;DHT22;15177;50.844;4.412;2022-08-19T05:38:10;20.10;99.90
27797;DHT22;15177;50.844;4.412;2022-08-19T05:40:38;20.10;99.90
27797;DHT22;15177;50.844;4.412;2022-08-19T05:43:06;20.20;99.90
27797;DHT22;15177;50.844;4.412;2022-08-19T05:45:37;20.30;99.90
27797;DHT22;15177;50.844;4.412;2022-08-19T05:48:03;20.40;99.90
27797;DHT22;15177;50.844;4.412;2022-08-19T05:50:28;20.50;99.90
27797;DHT22;15177;50.844;4.412;2022-08-19T05:52:55;20.60;99.90
27797;DHT22;15177;50.844;4.412;2022-08-19T05:55:20;20.80;99.90
27797;DHT22;15177;50.844;4.412;2022-08-19T05:57:48;20.80;99.90
27797;DHT22;15177;50.844;4.412;2022-08-19T06:00:14;20.90;99.90
27797;DHT22;15177;50.844;4.412;2022-08-19T06:02:40;21.00;99.90
27797;DHT22;15177;50.844;4.412;2022-08-19T06:05:07;21.10;99.90
27797;DHT22;15177;50.844;4.412;2022-08-19T06:07:35;21.20;99.90
27797;DHT22;15177;50.844;4.412;2022-08-19T06:10:04;21.20;99.90
27797;DHT22;15177;50.844;4.412;2022-08-19T06:12:34;21.20;99.90
27797;DHT22;15177;50.844;4.412;2022-08-19T06:15:12;21.30;99.90
27797;DHT22;15177;50.844;4.412;2022-08-19T06:17:38;21.30;99.90
27797;DHT22;15177;50.844;4.412;2022-08-19T06:20:06;21.90;99.90
27797;DHT22;15177;50.844;4.412;2022-08-19T06:22:38;23.10;99.90
27797;DHT22;15177;50.844;4.412;2022-08-19T06:25:04;24.40;99.90
27797;DHT22;15177;50.844;4.412;2022-08-19T06:27:30;24.70;99.90
27797;DHT22;15177;50.844;4.412;2022-08-19T06:29:57;24.60;99.90
27797;DHT22;15177;50.844;4.412;2022-08-19T06:32:22;24.30;99.90
27797;DHT22;15177;50.844;4.412;2022-08-19T06:34:48;24.00;99.90
27797;DHT22;15177;50.844;4.412;2022-08-19T06:37:14;23.70;99.90
27797;DHT22;15177;50.844;4.412;2022-08-19T06:39:42;23.50;99.90
27797;DHT22;15177;50.844;4.412;2022-08-19T06:42:09;23.40;99.90
27797;DHT22;15177;50.844;4.412;2022-08-19T06:44:38;23.30;99.90
27797;DHT22;15177;50.844;4.412;2022-08-19T06:47:06;23.30;99.90
27797;DHT22;15177;50.844;4.412;2022-08-19T06:49:32;23.40;99.90
27797;DHT22;15177;50.844;4.412;2022-08-19T06:51:59;23.60;99.90
27797;DHT22;15177;50.844;4.412;2022-08-19T06:54:26;23.70;99.90
27797;DHT22;15177;50.844;4.412;2022-08-19T06:56:53;23.70;99.90
27797;DHT22;15177;50.844;4.412;2022-08-19T06:59:21;23.70;99.90
27797;DHT22;15177;50.844;4.412;2022-08-19T07:01:52;23.50;99.90
27797;DHT22;15177;50.844;4.412;2022-08-19T07:04:21;23.60;99.90
27797;DHT22;15177;50.844;4.412;2022-08-19T07:06:48;23.80;99.90
27797;DHT22;15177;50.844;4.412;2022-08-19T07:09:16;24.00;99.90
27797;DHT22;15177;50.844;4.412;2022-08-19T07:11:47;23.90;99.90
27797;DHT22;15177;50.844;4.412;2022-08-19T07:14:15;23.80;99.90
27797;DHT22;15177;50.844;4.412;2022-08-19T07:16:43;23.60;99.90
27797;DHT22;15177;50.844;4.412;2022-08-19T07:19:11;23.40;99.90
27797;DHT22;15177;50.844;4.412;2022-08-19T07:21:36;23.20;99.90
27797;DHT22;15177;50.844;4.412;2022-08-19T07:24:02;23.10;99.90
27797;DHT22;15177;50.844;4.412;2022-08-19T07:26:32;23.00;99.90
27797;DHT22;15177;50.844;4.412;2022-08-19T07:28:58;23.00;99.90
27797;DHT22;15177;50.844;4.412;2022-08-19T07:31:26;23.20;99.90
27797;DHT22;15177;50.844;4.412;2022-08-19T07:33:54;23.40;99.90
27797;DHT22;15177;50.844;4.412;2022-08-19T07:36:27;23.60;99.90
27797;DHT22;15177;50.844;4.412;2022-08-19T07:38:59;23.60;99.90
27797;DHT22;15177;50.844;4.412;2022-08-19T07:41:27;23.60;99.90
27797;DHT22;15177;50.844;4.412;2022-08-19T07:43:54;23.50;99.90
27797;DHT22;15177;50.844;4.412;2022-08-19T07:46:20;23.50;99.90
27797;DHT22;15177;50.844;4.412;2022-08-19T07:48:47;23.40;99.90
27797;DHT22;15177;50.844;4.412;2022-08-19T07:51:20;23.50;99.90
27797;DHT22;15177;50.844;4.412;2022-08-19T07:53:47;24.10;99.90
27797;DHT22;15177;50.844;4.412;2022-08-19T07:56:14;24.50;99.90
27797;DHT22;15177;50.844;4.412;2022-08-19T07:58:43;24.70;99.90
27797;DHT22;15177;50.844;4.412;2022-08-19T08:01:13;24.80;99.90
27797;DHT22;15177;50.844;4.412;2022-08-19T08:03:39;25.00;99.90
27797;DHT22;15177;50.844;4.412;2022-08-19T08:06:24;25.20;99.90
27797;DHT22;15177;50.844;4.412;2022-08-19T08:09:09;25.90;99.90
27797;DHT22;15177;50.844;4.412;2022-08-19T08:11:48;26.30;99.90
27797;DHT22;15177;50.844;4.412;2022-08-19T08:14:17;26.10;99.90
27797;DHT22;15177;50.844;4.412;2022-08-19T08:16:43;26.00;99.90
27797;DHT22;15177;50.844;4.412;2022-08-19T08:19:11;25.40;99.90
27797;DHT22;15177;50.844;4.412;2022-08-19T08:21:37;25.00;99.90
27797;DHT22;15177;50.844;4.412;2022-08-19T08:24:03;24.90;99.90
27797;DHT22;15177;50.844;4.412;2022-08-19T08:26:28;25.00;99.90
27797;DHT22;15177;50.844;4.412;2022-08-19T08:28:54;25.10;99.90
27797;DHT22;15177;50.844;4.412;2022-08-19T08:31:20;25.10;99.90
27797;DHT22;15177;50.844;4.412;2022-08-19T08:33:46;25.10;99.90
27797;DHT22;15177;50.844;4.412;2022-08-19T08:36:13;25.00;99.90
27797;DHT22;15177;50.844;4.412;2022-08-19T08:38:42;24.90;99.90
27797;DHT22;15177;50.844;4.412;2022-08-19T08:41:48;24.70;99.90
27797;DHT22;15177;50.844;4.412;2022-08-19T08:44:20;24.50;99.90
27797;DHT22;15177;50.844;4.412;2022-08-19T08:46:55;24.40;99.90
27797;DHT22;15177;50.844;4.412;2022-08-19T08:49:37;24.30;99.90
27797;DHT22;15177;50.844;4.412;2022-08-19T08:52:21;24.40;99.90
27797;DHT22;15177;50.844;4.412;2022-08-19T08:54:49;24.40;99.90
27797;DHT22;15177;50.844;4.412;2022-08-19T08:57:27;24.50;99.90
27797;DHT22;15177;50.844;4.412;2022-08-19T08:59:56;24.50;99.90
27797;DHT22;15177;50.844;4.412;2022-08-19T09:02:22;24.30;99.90
27797;DHT22;15177;50.844;4.412;2022-08-19T09:04:48;24.30;99.90
27797;DHT22;15177;50.844;4.412;2022-08-19T09:07:26;24.10;99.90
27797;DHT22;15177;50.844;4.412;2022-08-19T09:10:26;24.00;99.90
27797;DHT22;15177;50.844;4.412;2022-08-19T09:15:55;24.00;99.90
27797;DHT22;15177;50.844;4.412;2022-08-19T09:18:22;23.90;99.90
27797;DHT22;15177;50.844;4.412;2022-08-19T09:20:47;23.80;99.90
27797;DHT22;15177;50.844;4.412;2022-08-19T09:23:13;23.70;99.90
27797;DHT22;15177;50.844;4.412;2022-08-19T09:25:39;23.80;99.90
27797;DHT22;15177;50.844;4.412;2022-08-19T09:28:06;23.80;99.90
27797;DHT22;15177;50.844;4.412;2022-08-19T09:30:40;24.00;99.90
27797;DHT22;15177;50.844;4.412;2022-08-19T09:33:07;24.10;99.90
27797;DHT22;15177;50.844;4.412;2022-08-19T09:35:33;24.30;99.90
27797;DHT22;15177;50.844;4.412;2022-08-19T09:38:00;24.40;99.90
27797;DHT22;15177;50.844;4.412;2022-08-19T09:40:31;24.50;99.90
27797;DHT22;15177;50.844;4.412;2022-08-19T09:42:57;24.60;99.90
27797;DHT22;15177;50.844;4.412;2022-08-19T09:45:28;24.60;99.90
27797;DHT22;15177;50.844;4.412;2022-08-19T09:47:54;24.70;99.90
27797;DHT22;15177;50.844;4.412;2022-08-19T09:50:22;24.60;99.90
27797;DHT22;15177;50.844;4.412;2022-08-19T09:52:48;24.40;99.90
27797;DHT22;15177;50.844;4.412;2022-08-19T09:55:14;24.50;99.90
27797;DHT22;15177;50.844;4.412;2022-08-19T09:57:41;24.50;99.90
27797;DHT22;15177;50.844;4.412;2022-08-19T10:00:08;24.60;99.90
27797;DHT22;15177;50.844;4.412;2022-08-19T10:02:34;24.70;99.90
27797;DHT22;15177;50.844;4.412;2022-08-19T10:05:00;24.60;99.90
27797;DHT22;15177;50.844;4.412;2022-08-19T10:07:44;24.40;99.90
27797;DHT22;15177;50.844;4.412;2022-08-19T10:10:10;24.50;99.90
27797;DHT22;15177;50.844;4.412;2022-08-19T10:12:37;24.70;99.90
27797;DHT22;15177;50.844;4.412;2022-08-19T10:15:05;24.70;99.90
27797;DHT22;15177;50.844;4.412;2022-08-19T10:17:31;24.60;99.90
27797;DHT22;15177;50.844;4.412;2022-08-19T10:19:59;24.70;99.90
27797;DHT22;15177;50.844;4.412;2022-08-19T10:22:25;24.70;99.90
27797;DHT22;15177;50.844;4.412;2022-08-19T10:24:51;24.40;99.90
27797;DHT22;15177;50.844;4.412;2022-08-19T10:27:17;24.30;99.90
27797;DHT22;15177;50.844;4.412;2022-08-19T10:29:43;24.30;99.90
27797;DHT22;15177;50.844;4.412;2022-08-19T10:32:09;24.50;99.90
27797;DHT22;15177;50.844;4.412;2022-08-19T10:34:37;24.80;99.90
27797;DHT22;15177;50.844;4.412;2022-08-19T10:37:04;24.90;99.90
27797;DHT22;15177;50.844;4.412;2022-08-19T10:39:34;25.00;99.90
27797;DHT22;15177;50.844;4.412;2022-08-19T10:42:07;25.10;99.90
27797;DHT22;15177;50.844;4.412;2022-08-19T10:44:33;25.10;99.90
27797;DHT22;15177;50.844;4.412;2022-08-19T10:47:01;25.10;99.90
27797;DHT22;15177;50.844;4.412;2022-08-19T10:49:26;25.10;99.90
27797;DHT22;15177;50.844;4.412;2022-08-19T10:51:52;25.20;99.90
27797;DHT22;15177;50.844;4.412;2022-08-19T10:54:36;25.10;99.90
27797;DHT22;15177;50.844;4.412;2022-08-19T10:57:20;25.10;99.90
27797;DHT22;15177;50.844;4.412;2022-08-19T10:59:49;25.20;99.90
27797;DHT22;15177;50.844;4.412;2022-08-19T11:02:15;25.20;99.90
27797;DHT22;15177;50.844;4.412;2022-08-19T11:04:40;25.20;99.90
27797;DHT22;15177;50.844;4.412;2022-08-19T11:07:07;25.30;99.90
27797;DHT22;15177;50.844;4.412;2022-08-19T11:09:38;25.40;99.90
27797;DHT22;15177;50.844;4.412;2022-08-19T11:12:05;25.40;99.90
27797;DHT22;15177;50.844;4.412;2022-08-19T11:14:32;25.40;99.90
27797;DHT22;15177;50.844;4.412;2022-08-19T11:16:59;25.20;99.90
27797;DHT22;15177;50.844;4.412;2022-08-19T11:19:24;25.10;99.90
27797;DHT22;15177;50.844;4.412;2022-08-19T11:21:51;25.00;99.90
27797;DHT22;15177;50.844;4.412;2022-08-19T11:24:24;24.90;99.90
27797;DHT22;15177;50.844;4.412;2022-08-19T11:26:52;25.00;99.90
27797;DHT22;15177;50.844;4.412;2022-08-19T11:29:21;25.00;99.90
27797;DHT22;15177;50.844;4.412;2022-08-19T11:31:48;25.10;99.90
27797;DHT22;15177;50.844;4.412;2022-08-19T11:34:17;25.00;99.90
27797;DHT22;15177;50.844;4.412;2022-08-19T11:36:45;25.00;99.90
27797;DHT22;15177;50.844;4.412;2022-08-19T11:39:14;24.90;99.90
27797;DHT22;15177;50.844;4.412;2022-08-19T11:41:41;24.70;99.90
27797;DHT22;15177;50.844;4.412;2022-08-19T11:44:07;24.60;99.90
27797;DHT22;15177;50.844;4.412;2022-08-19T11:46:35;24.60;99.90
27797;DHT22;15177;50.844;4.412;2022-08-19T11:49:02;24.60;99.90
27797;DHT22;15177;50.844;4.412;2022-08-19T11:51:31;24.60;99.90
27797;DHT22;15177;50.844;4.412;2022-08-19T11:53:58;24.70;99.90
27797;DHT22;15177;50.844;4.412;2022-08-19T11:56:26;24.70;99.90
27797;DHT22;15177;50.844;4.412;2022-08-19T11:58:53;24.70;99.90
27797;DHT22;15177;50.844;4.412;2022-08-19T12:01:20;24.70;99.90
27797;DHT22;15177;50.844;4.412;2022-08-19T12:03:48;24.70;99.90
27797;DHT22;15177;50.844;4.412;2022-08-19T12:06:19;24.90;99.90
27797;DHT22;15177;50.844;4.412;2022-08-19T12:08:45;25.10;99.90
27797;DHT22;15177;50.844;4.412;2022-08-19T12:11:12;25.40;99.90
27797;DHT22;15177;50.844;4.412;2022-08-19T12:13:39;25.90;99.90
27797;DHT22;15177;50.844;4.412;2022-08-19T12:16:12;26.30;99.90
27797;DHT22;15177;50.844;4.412;2022-08-19T12:18:40;26.60;99.90
27797;DHT22;15177;50.844;4.412;2022-08-19T12:21:16;26.90;99.90
27797;DHT22;15177;50.844;4.412;2022-08-19T12:23:43;27.10;99.90
27797;DHT22;15177;50.844;4.412;2022-08-19T12:26:11;27.30;99.90
27797;DHT22;15177;50.844;4.412;2022-08-19T12:28:37;27.40;99.90
27797;DHT22;15177;50.844;4.412;2022-08-19T12:31:03;27.40;99.90
27797;DHT22;15177;50.844;4.412;2022-08-19T12:33:29;27.30;99.90
27797;DHT22;15177;50.844;4.412;2022-08-19T12:35:55;27.30;99.90
27797;DHT22;15177;50.844;4.412;2022-08-19T12:38:25;27.30;99.90
27797;DHT22;15177;50.844;4.412;2022-08-19T12:40:50;27.40;99.90
27797;DHT22;15177;50.844;4.412;2022-08-19T12:43:17;27.40;99.90
27797;DHT22;15177;50.844;4.412;2022-08-19T12:45:45;27.40;99.90
27797;DHT22;15177;50.844;4.412;2022-08-19T12:48:11;27.40;99.90
27797;DHT22;15177;50.844;4.412;2022-08-19T12:50:40;27.30;99.90
27797;DHT22;15177;50.844;4.412;2022-08-19T12:53:05;27.30;99.90
27797;DHT22;15177;50.844;4.412;2022-08-19T12:55:31;27.30;99.90
27797;DHT22;15177;50.844;4.412;2022-08-19T12:57:57;27.40;99.90
27797;DHT22;15177;50.844;4.412;2022-08-19T13:00:23;27.50;99.90
27797;DHT22;15177;50.844;4.412;2022-08-19T13:02:51;27.60;99.90
27797;DHT22;15177;50.844;4.412;2022-08-19T13:05:20;27.70;99.90
27797;DHT22;15177;50.844;4.412;2022-08-19T13:07:48;27.80;99.90
27797;DHT22;15177;50.844;4.412;2022-08-19T13:10:16;27.80;99.90
27797;DHT22;15177;50.844;4.412;2022-08-19T13:12:44;27.70;99.90
27797;DHT22;15177;50.844;4.412;2022-08-19T13:15:10;27.60;99.90
27797;DHT22;15177;50.844;4.412;2022-08-19T13:17:36;27.60;99.90
27797;DHT22;15177;50.844;4.412;2022-08-19T13:20:03;27.50;99.90
27797;DHT22;15177;50.844;4.412;2022-08-19T13:22:31;27.40;99.90
27797;DHT22;15177;50.844;4.412;2022-08-19T13:24:57;27.40;99.90
27797;DHT22;15177;50.844;4.412;2022-08-19T13:27:22;27.50;99.90
27797;DHT22;15177;50.844;4.412;2022-08-19T13:29:48;27.40;99.90
27797;DHT22;15177;50.844;4.412;2022-08-19T13:32:32;27.40;99.90
27797;DHT22;15177;50.844;4.412;2022-08-19T13:35:16;27.40;99.90
27797;DHT22;15177;50.844;4.412;2022-08-19T13:37:42;27.40;99.90
27797;DHT22;15177;50.844;4.412;2022-08-19T13:40:15;27.30;99.90
27797;DHT22;15177;50.844;4.412;2022-08-19T13:42:44;27.30;99.90
27797;DHT22;15177;50.844;4.412;2022-08-19T13:45:12;27.20;99.90
27797;DHT22;15177;50.844;4.412;2022-08-19T13:47:38;27.30;99.90
27797;DHT22;15177;50.844;4.412;2022-08-19T13:50:14;27.30;99.90
27797;DHT22;15177;50.844;4.412;2022-08-19T13:52:41;27.40;99.90
27797;DHT22;15177;50.844;4.412;2022-08-19T13:55:09;27.50;99.90
27797;DHT22;15177;50.844;4.412;2022-08-19T13:57:36;27.50;99.90
27797;DHT22;15177;50.844;4.412;2022-08-19T14:00:07;27.40;99.90
27797;DHT22;15177;50.844;4.412;2022-08-19T14:02:35;27.10;99.90
27797;DHT22;15177;50.844;4.412;2022-08-19T14:05:04;27.00;99.90
27797;DHT22;15177;50.844;4.412;2022-08-19T14:07:30;26.90;99.90
27797;DHT22;15177;50.844;4.412;2022-08-19T14:09:55;27.00;99.90
27797;DHT22;15177;50.844;4.412;2022-08-19T14:12:22;27.00;99.90
27797;DHT22;15177;50.844;4.412;2022-08-19T14:14:49;27.10;99.90
27797;DHT22;15177;50.844;4.412;2022-08-19T14:17:14;26.80;99.90
27797;DHT22;15177;50.844;4.412;2022-08-19T14:19:41;26.60;99.90
27797;DHT22;15177;50.844;4.412;2022-08-19T14:22:06;26.40;99.90
27797;DHT22;15177;50.844;4.412;2022-08-19T14:24:32;26.20;99.90
27797;DHT22;15177;50.844;4.412;2022-08-19T14:26:58;25.80;99.90
27797;DHT22;15177;50.844;4.412;2022-08-19T14:29:25;25.40;99.90
27797;DHT22;15177;50.844;4.412;2022-08-19T14:31:50;25.20;99.90
27797;DHT22;15177;50.844;4.412;2022-08-19T14:34:16;25.20;99.90
27797;DHT22;15177;50.844;4.412;2022-08-19T14:36:42;25.30;99.90
27797;DHT22;15177;50.844;4.412;2022-08-19T14:39:08;25.50;99.90
27797;DHT22;15177;50.844;4.412;2022-08-19T14:41:35;25.50;99.90
27797;DHT22;15177;50.844;4.412;2022-08-19T14:44:00;25.50;99.90
27797;DHT22;15177;50.844;4.412;2022-08-19T14:46:27;25.50;99.90
27797;DHT22;15177;50.844;4.412;2022-08-19T14:48:54;25.50;99.90
27797;DHT22;15177;50.844;4.412;2022-08-19T14:51:23;25.50;99.90
27797;DHT22;15177;50.844;4.412;2022-08-19T14:53:49;25.30;99.90
27797;DHT22;15177;50.844;4.412;2022-08-19T14:56:18;25.30;99.90
27797;DHT22;15177;50.844;4.412;2022-08-19T14:58:44;25.20;99.90
27797;DHT22;15177;50.844;4.412;2022-08-19T15:01:11;25.10;99.90
27797;DHT22;15177;50.844;4.412;2022-08-19T15:03:38;25.10;99.90
27797;DHT22;15177;50.844;4.412;2022-08-19T15:06:05;25.30;99.90
27797;DHT22;15177;50.844;4.412;2022-08-19T15:08:33;25.40;99.90
27797;DHT22;15177;50.844;4.412;2022-08-19T15:11:00;25.50;99.90
27797;DHT22;15177;50.844;4.412;2022-08-19T15:13:28;25.60;99.90
27797;DHT22;15177;50.844;4.412;2022-08-19T15:15:55;25.80;99.90
27797;DHT22;15177;50.844;4.412;2022-08-19T15:18:21;25.80;99.90
27797;DHT22;15177;50.844;4.412;2022-08-19T15:20:48;25.90;99.90
27797;DHT22;15177;50.844;4.412;2022-08-19T15:23:15;25.80;99.90
27797;DHT22;15177;50.844;4.412;2022-08-19T15:25:41;25.80;99.90
27797;DHT22;15177;50.844;4.412;2022-08-19T15:28:08;25.80;99.90
27797;DHT22;15177;50.844;4.412;2022-08-19T15:30:37;25.80;99.90
27797;DHT22;15177;50.844;4.412;2022-08-19T15:33:03;25.80;99.90
27797;DHT22;15177;50.844;4.412;2022-08-19T15:35:29;25.80;99.90
27797;DHT22;15177;50.844;4.412;2022-08-19T15:37:55;25.80;99.90
27797;DHT22;15177;50.844;4.412;2022-08-19T15:40:22;25.80;99.90